Time;durP1;ratioP1;P1;durP2;ratioP2;P2;SDS_P1;SDS_P2;PMS_P1;PMS_P2;Temp;Humidity;BMP_temperature;BMP_pressure;BME280_temperature;BME280_humidity;BME280_pressure;Samples;Min_cycle;Max_cycle;Signal;HPM_P1;HPM_P2
2022/11/23 00:00:03;;;;;;;4.23;3.83;;;8.60;99.90;;;;;;5097055;28;20192;-73
2022/11/23 00:02:29;;;;;;;5.22;3.55;;;8.60;99.90;;;;;;5114519;28;20530;-73
2022/11/23 00:04:54;;;;;;;5.73;3.90;;;8.60;99.90;;;;;;5096714;28;20223;-73
2022/11/23 00:07:20;;;;;;;4.17;3.40;;;8.60;99.90;;;;;;5115128;28;20176;-73
2022/11/23 00:09:45;;;;;;;3.30;3.00;;;8.60;99.90;;;;;;5115354;28;20217;-73
2022/11/23 00:12:11;;;;;;;5.17;3.27;;;8.60;99.90;;;;;;5115045;28;20545;-74
2022/11/23 00:14:37;;;;;;;3.83;3.53;;;8.60;99.90;;;;;;5115030;28;20200;-73
2022/11/23 00:17:03;;;;;;;5.40;3.57;;;8.70;99.90;;;;;;5096683;28;20664;-74
2022/11/23 00:19:28;;;;;;;6.60;4.00;;;8.70;99.90;;;;;;5096511;28;20245;-74
2022/11/23 00:21:54;;;;;;;5.10;3.70;;;8.70;99.90;;;;;;5114891;28;20393;-73
2022/11/23 00:24:19;;;;;;;4.30;3.30;;;8.70;99.90;;;;;;5096293;28;20222;-73
2022/11/23 00:26:45;;;;;;;4.50;3.57;;;8.70;99.90;;;;;;5096535;28;20227;-73
2022/11/23 00:29:11;;;;;;;6.00;3.10;;;8.70;99.90;;;;;;5114794;28;20573;-73
2022/11/23 00:31:36;;;;;;;4.17;3.27;;;8.70;99.90;;;;;;5096522;28;20193;-73
2022/11/23 00:34:02;;;;;;;5.53;3.63;;;8.70;99.90;;;;;;5114708;28;20251;-74
2022/11/23 00:36:28;;;;;;;4.63;3.73;;;8.70;99.90;;;;;;5096482;28;20633;-74
2022/11/23 00:38:54;;;;;;;4.70;3.53;;;8.70;99.90;;;;;;5114525;28;20195;-74
2022/11/23 00:41:23;;;;;;;5.63;4.43;;;8.70;99.90;;;;;;5096255;28;20260;-73
2022/11/23 00:43:49;;;;;;;6.75;4.28;;;8.70;99.90;;;;;;5096079;28;20207;-73
2022/11/23 00:46:17;;;;;;;4.47;3.80;;;8.70;99.90;;;;;;5096140;28;20191;-74
2022/11/23 00:48:43;;;;;;;5.32;3.55;;;8.70;99.90;;;;;;5114520;28;20440;-74
2022/11/23 00:51:11;;;;;;;6.75;3.88;;;8.70;99.90;;;;;;5114796;28;20256;-73
2022/11/23 00:53:37;;;;;;;4.93;3.38;;;8.70;99.90;;;;;;5096172;28;20233;-73
2022/11/23 00:56:04;;;;;;;5.45;3.20;;;8.80;99.90;;;;;;5095904;28;20199;-73
2022/11/23 00:58:29;;;;;;;7.28;4.40;;;8.80;99.90;;;;;;5096102;28;20180;-73
2022/11/23 01:01:03;;;;;;;4.43;3.07;;;8.80;99.90;;;;;;5114147;28;20198;-73
2022/11/23 01:03:29;;;;;;;5.32;3.45;;;8.80;99.90;;;;;;5095935;28;20211;-73
2022/11/23 01:06:00;;;;;;;5.90;3.78;;;8.80;99.90;;;;;;5114611;28;20200;-73
2022/11/23 01:08:26;;;;;;;4.43;3.80;;;8.80;99.90;;;;;;5096033;28;20641;-73
2022/11/23 01:10:51;;;;;;;4.40;4.00;;;8.80;99.90;;;;;;5096047;28;20209;-73
2022/11/23 01:13:17;;;;;;;5.13;3.50;;;8.80;99.90;;;;;;5094893;28;20224;-73
2022/11/23 01:15:50;;;;;;;6.37;4.17;;;8.80;99.90;;;;;;5096003;28;20199;-73
2022/11/23 01:18:16;;;;;;;4.18;3.35;;;8.80;99.90;;;;;;5114407;28;20197;-73
2022/11/23 01:20:41;;;;;;;6.03;3.70;;;8.80;99.90;;;;;;5114394;28;20199;-73
2022/11/23 01:23:07;;;;;;;7.00;3.40;;;8.80;99.90;;;;;;5095766;28;20547;-73
2022/11/23 01:25:35;;;;;;;3.67;3.10;;;8.80;99.90;;;;;;5095728;28;20280;-73
2022/11/23 01:28:01;;;;;;;5.38;3.05;;;8.80;99.90;;;;;;5095609;28;20322;-74
2022/11/23 01:30:26;;;;;;;4.90;3.47;;;8.80;99.90;;;;;;5095830;28;20238;-74
2022/11/23 01:32:52;;;;;;;4.50;3.03;;;8.80;99.90;;;;;;5095863;28;20186;-73
2022/11/23 01:35:18;;;;;;;3.33;2.80;;;8.80;99.90;;;;;;5114117;28;20829;-74
2022/11/23 01:37:44;;;;;;;3.03;2.70;;;8.80;99.90;;;;;;5095735;28;20273;-73
2022/11/23 01:40:10;;;;;;;3.80;2.30;;;8.80;99.90;;;;;;5095658;28;20199;-73
2022/11/23 01:42:53;;;;;;;4.68;2.75;;;8.80;99.90;;;;;;5095752;28;20175;-74
2022/11/23 01:45:40;;;;;;;4.55;2.63;;;8.80;99.90;;;;;;5114046;28;20238;-74
2022/11/23 01:48:14;;;;;;;3.20;2.70;;;8.90;99.90;;;;;;5113853;28;20236;-73
2022/11/23 01:50:43;;;;;;;3.63;3.33;;;8.80;99.90;;;;;;5095441;28;20207;-74
2022/11/23 01:53:09;;;;;;;3.47;2.60;;;8.80;99.90;;;;;;5095572;28;20180;-73
2022/11/23 01:55:35;;;;;;;3.43;2.47;;;8.90;99.90;;;;;;5114173;28;20218;-74
2022/11/23 01:58:03;;;;;;;3.88;3.08;;;8.90;99.90;;;;;;5095567;28;20184;-73
2022/11/23 02:00:29;;;;;;;4.70;2.95;;;8.90;99.90;;;;;;5095570;28;20284;-74
2022/11/23 02:02:58;;;;;;;3.83;2.53;;;8.90;99.90;;;;;;5095436;28;20217;-73
2022/11/23 02:05:30;;;;;;;3.75;2.78;;;8.90;99.90;;;;;;5113817;28;20958;-74
2022/11/23 02:07:59;;;;;;;3.08;2.30;;;8.90;99.90;;;;;;5095448;28;20180;-73
2022/11/23 02:10:25;;;;;;;2.50;2.17;;;8.90;99.90;;;;;;5113849;28;20732;-73
2022/11/23 02:12:52;;;;;;;3.40;2.80;;;8.90;99.90;;;;;;5113668;28;20180;-73
2022/11/23 02:15:18;;;;;;;3.58;2.72;;;8.90;99.90;;;;;;5113375;28;20448;-73
2022/11/23 02:17:44;;;;;;;2.67;2.40;;;8.90;99.90;;;;;;5095345;28;20217;-74
2022/11/23 02:20:13;;;;;;;3.53;2.50;;;8.90;99.90;;;;;;5095317;28;20200;-74
2022/11/23 02:23:21;;;;;;;3.70;3.38;;;8.90;99.90;;;;;;5095316;28;20212;-73
2022/11/23 02:25:55;;;;;;;3.40;2.60;;;9.00;99.90;;;;;;5108122;28;20228;-74
2022/11/23 02:28:25;;;;;;;3.90;2.65;;;8.90;99.90;;;;;;5117235;28;20699;-74
2022/11/23 02:30:53;;;;;;;6.13;2.67;;;9.00;99.90;;;;;;5116967;28;20192;-74
2022/11/23 02:33:19;;;;;;;3.45;2.70;;;9.00;99.90;;;;;;5117000;28;20538;-74
2022/11/23 02:35:56;;;;;;;3.77;2.80;;;9.00;99.90;;;;;;5117351;28;20244;-73
2022/11/23 02:38:27;;;;;;;3.35;2.20;;;9.00;99.90;;;;;;5098774;28;20544;-74
2022/11/23 02:40:52;;;;;;;3.78;2.50;;;9.00;99.90;;;;;;5098765;28;20196;-74
2022/11/23 02:43:18;;;;;;;2.67;2.30;;;9.00;99.90;;;;;;5116763;28;20179;-74
2022/11/23 02:45:46;;;;;;;4.53;2.60;;;8.90;99.90;;;;;;5116640;28;20248;-73
2022/11/23 02:48:12;;;;;;;4.20;2.78;;;8.90;99.90;;;;;;5098533;28;20637;-74
2022/11/23 02:50:38;;;;;;;3.60;2.70;;;9.00;99.90;;;;;;5117231;28;20203;-74
2022/11/23 02:53:03;;;;;;;2.90;2.57;;;8.90;99.90;;;;;;5116684;28;20684;-74
2022/11/23 02:55:29;;;;;;;5.47;2.90;;;9.00;99.90;;;;;;5098420;28;20199;-74
2022/11/23 02:57:55;;;;;;;3.80;2.87;;;9.00;99.90;;;;;;5098252;28;20180;-74
2022/11/23 03:00:20;;;;;;;5.63;3.30;;;9.00;99.90;;;;;;5116670;28;20222;-73
2022/11/23 03:02:46;;;;;;;3.03;2.70;;;9.00;99.90;;;;;;5116449;28;20201;-73
2022/11/23 03:05:12;;;;;;;4.80;3.60;;;9.00;99.90;;;;;;5098013;28;20276;-73
2022/11/23 03:07:37;;;;;;;3.83;3.20;;;9.00;99.90;;;;;;5098163;28;20179;-73
2022/11/23 03:10:04;;;;;;;4.10;2.67;;;9.00;99.90;;;;;;5098067;28;20246;-74
2022/11/23 03:12:29;;;;;;;2.83;2.50;;;9.00;99.90;;;;;;5116247;28;20275;-73
2022/11/23 03:14:55;;;;;;;4.50;3.10;;;9.00;99.90;;;;;;5098030;28;20633;-74
2022/11/23 03:17:21;;;;;;;3.57;3.23;;;9.00;99.90;;;;;;5097884;28;20179;-73
2022/11/23 03:19:46;;;;;;;4.57;3.50;;;9.00;99.90;;;;;;5115978;28;20737;-73
2022/11/23 03:22:12;;;;;;;4.07;2.93;;;9.00;99.90;;;;;;5116030;28;20172;-73
2022/11/23 03:24:38;;;;;;;5.00;3.40;;;9.00;99.90;;;;;;5097648;28;20247;-74
2022/11/23 03:27:04;;;;;;;4.27;3.50;;;9.00;99.90;;;;;;5097673;28;20271;-73
2022/11/23 03:29:29;;;;;;;5.13;3.40;;;9.00;99.90;;;;;;5115976;28;20187;-73
2022/11/23 03:31:55;;;;;;;4.30;2.83;;;9.00;99.90;;;;;;5115988;28;20778;-74
2022/11/23 03:34:22;;;;;;;4.20;3.10;;;9.00;99.90;;;;;;5115846;28;20724;-73
2022/11/23 03:36:48;;;;;;;5.43;3.17;;;9.00;99.90;;;;;;5096575;28;20505;-74
2022/11/23 03:39:13;;;;;;;5.90;3.70;;;9.00;99.90;;;;;;5115697;28;20209;-73
2022/11/23 03:41:39;;;;;;;3.93;3.40;;;9.00;99.90;;;;;;5097431;28;20412;-73
2022/11/23 03:44:04;;;;;;;4.50;3.90;;;9.10;99.90;;;;;;5115481;28;20692;-74
2022/11/23 03:46:30;;;;;;;4.80;3.47;;;9.10;99.90;;;;;;5097463;28;20262;-73
2022/11/23 03:48:56;;;;;;;4.30;2.80;;;9.10;99.90;;;;;;5097262;28;20268;-74
2022/11/23 03:51:22;;;;;;;5.67;2.67;;;9.10;99.90;;;;;;5115477;28;20228;-73
2022/11/23 03:53:48;;;;;;;5.18;3.17;;;9.10;99.90;;;;;;5097232;28;20178;-74
2022/11/23 03:56:13;;;;;;;6.00;3.60;;;9.10;99.90;;;;;;5115345;28;20203;-73
2022/11/23 03:58:39;;;;;;;3.60;2.87;;;9.10;99.90;;;;;;5097127;28;20229;-74
2022/11/23 04:01:06;;;;;;;3.53;3.00;;;9.10;99.90;;;;;;5115661;28;20213;-73
2022/11/23 04:03:33;;;;;;;4.03;2.58;;;9.00;99.90;;;;;;5096882;28;20277;-73
2022/11/23 04:05:59;;;;;;;4.85;2.90;;;9.10;99.90;;;;;;5096976;28;20245;-73
2022/11/23 04:08:25;;;;;;;4.30;2.90;;;9.10;99.90;;;;;;5115154;28;20169;-74
2022/11/23 04:10:51;;;;;;;4.50;2.90;;;9.10;99.90;;;;;;5097236;28;20857;-73
2022/11/23 04:13:16;;;;;;;4.80;2.80;;;9.10;99.90;;;;;;5096836;28;20188;-74
2022/11/23 04:15:42;;;;;;;5.00;3.47;;;9.10;99.90;;;;;;5115428;28;20192;-73
2022/11/23 04:18:08;;;;;;;3.73;3.27;;;9.10;99.90;;;;;;5114986;28;20416;-74
2022/11/23 04:20:33;;;;;;;5.90;3.40;;;9.10;99.90;;;;;;5115415;28;20188;-74
2022/11/23 04:22:59;;;;;;;4.70;3.00;;;9.10;99.90;;;;;;5096706;28;20210;-73
2022/11/23 04:25:25;;;;;;;5.77;3.33;;;9.10;99.90;;;;;;5096655;28;20222;-73
2022/11/23 04:27:50;;;;;;;4.57;3.63;;;9.10;99.90;;;;;;5096704;28;20234;-73
2022/11/23 04:30:16;;;;;;;4.03;3.40;;;9.10;99.90;;;;;;5096543;28;20199;-73
2022/11/23 04:32:45;;;;;;;3.55;3.10;;;9.10;99.90;;;;;;5114798;28;20184;-73
2022/11/23 04:35:11;;;;;;;5.07;3.78;;;9.10;99.90;;;;;;5096608;28;20195;-73
2022/11/23 04:37:37;;;;;;;3.70;3.10;;;9.00;99.90;;;;;;5114696;28;20180;-74
2022/11/23 04:40:03;;;;;;;4.13;3.60;;;9.00;99.90;;;;;;5096360;28;20427;-73
2022/11/23 04:42:29;;;;;;;5.28;4.15;;;9.00;99.90;;;;;;5114467;28;20183;-73
2022/11/23 04:44:56;;;;;;;4.10;3.30;;;9.10;99.90;;;;;;5114238;28;20692;-73
2022/11/23 04:47:22;;;;;;;4.75;3.00;;;9.00;99.90;;;;;;5095951;28;20191;-73
2022/11/23 04:49:47;;;;;;;4.87;4.37;;;9.00;99.90;;;;;;5114733;28;20648;-73
2022/11/23 04:52:13;;;;;;;5.60;4.67;;;9.00;99.90;;;;;;5095403;28;20415;-73
2022/11/23 04:54:39;;;;;;;3.73;3.30;;;9.10;99.90;;;;;;5096144;28;20278;-74
2022/11/23 04:57:04;;;;;;;4.53;3.30;;;9.10;99.90;;;;;;5114184;28;20180;-73
2022/11/23 04:59:30;;;;;;;7.43;4.63;;;9.00;99.90;;;;;;5095782;28;20675;-73
2022/11/23 05:01:56;;;;;;;6.77;4.50;;;9.00;99.90;;;;;;5113540;28;20211;-73
2022/11/23 05:04:22;;;;;;;5.00;4.20;;;9.00;99.90;;;;;;5092876;28;20219;-73
2022/11/23 05:06:47;;;;;;;5.13;4.47;;;9.00;99.90;;;;;;5112205;28;20414;-73
2022/11/23 05:09:13;;;;;;;6.07;4.10;;;9.10;99.90;;;;;;5111863;28;20172;-75
2022/11/23 05:11:39;;;;;;;9.13;4.33;;;9.10;99.90;;;;;;5111562;28;20406;-74
2022/11/23 05:14:04;;;;;;;4.50;3.70;;;9.10;99.90;;;;;;5111842;28;20179;-74
2022/11/23 05:16:30;;;;;;;5.23;3.80;;;9.10;99.90;;;;;;5093122;28;20175;-73
2022/11/23 05:18:55;;;;;;;4.50;3.73;;;9.10;99.90;;;;;;5095867;28;20691;-73
2022/11/23 05:21:21;;;;;;;4.70;3.60;;;9.10;99.90;;;;;;5095851;28;20192;-73
2022/11/23 05:23:46;;;;;;;4.20;3.60;;;9.10;99.90;;;;;;5110120;28;20215;-74
2022/11/23 05:26:12;;;;;;;3.93;3.53;;;9.10;99.90;;;;;;5093729;28;20284;-74
2022/11/23 05:28:38;;;;;;;5.93;3.83;;;9.10;99.90;;;;;;5111687;28;20227;-73
2022/11/23 05:31:04;;;;;;;6.40;3.50;;;9.10;99.90;;;;;;5111523;28;20608;-73
2022/11/23 05:33:29;;;;;;;4.63;3.30;;;9.10;99.90;;;;;;5093345;28;20627;-73
2022/11/23 05:35:55;;;;;;;5.10;3.77;;;9.10;99.90;;;;;;5093640;28;20464;-73
2022/11/23 05:38:21;;;;;;;4.90;3.80;;;9.10;99.90;;;;;;5111835;28;20407;-73
2022/11/23 05:40:46;;;;;;;4.67;4.17;;;9.20;99.90;;;;;;5113095;28;20286;-73
2022/11/23 05:43:12;;;;;;;4.40;3.77;;;9.20;99.90;;;;;;5095254;28;20186;-73
2022/11/23 05:45:38;;;;;;;4.77;3.90;;;9.20;99.90;;;;;;5111910;28;20306;-73
2022/11/23 05:48:04;;;;;;;3.93;3.53;;;9.20;99.90;;;;;;5104787;28;20424;-73
2022/11/23 05:50:30;;;;;;;4.47;3.05;;;9.20;99.90;;;;;;5092297;28;20198;-74
2022/11/23 05:52:59;;;;;;;5.83;3.70;;;9.20;99.90;;;;;;5085333;28;20175;-73
2022/11/23 05:55:25;;;;;;;4.13;3.60;;;9.20;99.90;;;;;;5101756;28;20542;-73
2022/11/23 05:57:51;;;;;;;3.78;3.42;;;9.20;99.90;;;;;;5091565;28;20278;-73
2022/11/23 06:00:17;;;;;;;7.03;4.17;;;9.30;99.90;;;;;;5095362;28;20283;-72
2022/11/23 06:02:43;;;;;;;5.30;3.80;;;9.30;99.90;;;;;;5116493;28;20424;-76
2022/11/23 06:05:09;;;;;;;5.10;3.93;;;9.30;99.90;;;;;;5097991;28;20768;-72
2022/11/23 06:07:36;;;;;;;239.90;108.32;;;9.30;99.90;;;;;;5098373;28;20534;-74
2022/11/23 06:10:03;;;;;;;13.82;9.95;;;9.30;99.90;;;;;;5099030;28;20200;-73
2022/11/23 06:12:29;;;;;;;7.57;4.88;;;9.30;99.90;;;;;;5098549;28;20207;-74
2022/11/23 06:14:55;;;;;;;6.15;4.85;;;9.30;99.90;;;;;;5116191;28;20203;-74
2022/11/23 06:17:21;;;;;;;6.00;4.23;;;9.30;99.90;;;;;;5098317;28;20184;-72
2022/11/23 06:19:47;;;;;;;5.10;4.45;;;9.30;99.90;;;;;;5116063;28;20196;-73
2022/11/23 06:22:14;;;;;;;6.90;5.33;;;9.30;99.90;;;;;;5116909;28;20291;-72
2022/11/23 06:24:40;;;;;;;36.83;13.40;;;9.30;99.90;;;;;;5096935;28;20246;-72
2022/11/23 06:27:05;;;;;;;32.27;14.10;;;9.30;99.90;;;;;;5116247;28;20231;-74
2022/11/23 06:29:31;;;;;;;37.53;16.07;;;9.40;99.90;;;;;;5115441;28;20461;-74
2022/11/23 06:31:57;;;;;;;24.03;11.73;;;9.40;99.90;;;;;;5116484;28;20432;-73
2022/11/23 06:34:23;;;;;;;14.00;7.13;;;9.40;99.90;;;;;;5098225;28;20191;-72
2022/11/23 06:36:48;;;;;;;17.23;10.83;;;9.40;99.90;;;;;;5097235;28;20229;-72
2022/11/23 06:39:14;;;;;;;15.10;8.40;;;9.40;99.90;;;;;;5115467;28;20645;-72
2022/11/23 06:41:39;;;;;;;11.10;7.20;;;9.40;99.90;;;;;;5114022;28;20176;-73
2022/11/23 06:44:05;;;;;;;8.10;5.77;;;9.40;99.90;;;;;;5092586;28;20574;-74
2022/11/23 06:46:32;;;;;;;7.07;5.20;;;9.40;99.90;;;;;;5110463;28;20183;-73
2022/11/23 06:48:57;;;;;;;6.78;4.50;;;9.40;99.90;;;;;;5091970;28;20196;-72
2022/11/23 06:51:23;;;;;;;7.90;5.70;;;9.50;99.90;;;;;;5088915;28;20192;-72
2022/11/23 06:53:49;;;;;;;9.40;7.00;;;9.40;99.90;;;;;;5080944;28;20539;-72
2022/11/23 06:56:15;;;;;;;7.60;5.67;;;9.50;99.90;;;;;;5092142;28;20444;-73
2022/11/23 06:58:41;;;;;;;7.43;5.77;;;9.50;99.90;;;;;;5111679;28;20427;-74
2022/11/23 07:01:08;;;;;;;6.57;4.37;;;9.50;99.90;;;;;;5115901;28;20210;-74
2022/11/23 07:03:35;;;;;;;6.35;5.00;;;9.50;99.90;;;;;;5095204;28;20266;-72
2022/11/23 07:06:08;;;;;;;7.15;5.35;;;9.50;99.90;;;;;;5112679;28;20245;-74
2022/11/23 07:08:35;;;;;;;6.60;5.03;;;9.50;99.90;;;;;;5110402;28;20172;-72
2022/11/23 07:11:02;;;;;;;8.50;5.13;;;9.50;99.90;;;;;;5093954;28;20192;-74
2022/11/23 07:13:28;;;;;;;5.68;4.03;;;9.50;99.90;;;;;;5093532;28;20260;-72
2022/11/23 07:15:54;;;;;;;6.93;4.83;;;9.50;99.90;;;;;;5109888;28;20673;-72
2022/11/23 07:18:19;;;;;;;9.70;6.13;;;9.50;99.90;;;;;;5094310;28;20222;-74
2022/11/23 07:20:45;;;;;;;6.93;5.00;;;9.50;99.90;;;;;;5094376;28;20226;-74
2022/11/23 07:23:11;;;;;;;15.83;8.70;;;9.50;99.90;;;;;;5093459;28;20211;-74
2022/11/23 07:25:37;;;;;;;16.20;9.73;;;9.60;99.90;;;;;;5102541;28;20226;-74
2022/11/23 07:28:05;;;;;;;10.25;7.20;;;9.60;99.90;;;;;;5105680;28;20188;-74
2022/11/23 07:30:32;;;;;;;7.40;5.90;;;9.60;99.90;;;;;;5112245;28;20199;-74
2022/11/23 07:33:00;;;;;;;6.25;5.35;;;9.60;99.90;;;;;;5108135;28;20675;-74
2022/11/23 07:38:44;;;;;;;7.20;5.80;;;9.60;99.90;;;;;;5168432;27;20524;-73
2022/11/23 07:41:09;;;;;;;8.20;5.90;;;9.60;99.90;;;;;;5125879;28;20283;-73
2022/11/23 07:43:35;;;;;;;6.07;5.33;;;9.60;99.90;;;;;;5111185;28;20686;-73
2022/11/23 07:46:00;;;;;;;7.60;5.90;;;9.60;99.90;;;;;;5121535;28;20264;-76
2022/11/23 07:48:26;;;;;;;9.07;5.53;;;9.60;99.90;;;;;;5116952;28;20187;-74
2022/11/23 07:50:53;;;;;;;6.87;5.20;;;9.70;99.90;;;;;;5098000;28;20191;-75
2022/11/23 07:53:19;;;;;;;6.70;5.50;;;9.70;99.90;;;;;;5115615;28;20172;-75
2022/11/23 07:55:45;;;;;;;10.27;6.03;;;9.70;99.90;;;;;;5100332;28;20195;-74
2022/11/23 07:58:11;;;;;;;15.73;8.90;;;9.70;99.90;;;;;;5126202;28;20478;-76
2022/11/23 08:00:37;;;;;;;10.88;7.40;;;9.80;99.90;;;;;;5123260;28;20484;-76
2022/11/23 08:03:03;;;;;;;11.82;7.07;;;9.80;99.90;;;;;;5124924;28;20207;-76
2022/11/23 08:05:34;;;;;;;7.85;5.80;;;9.80;99.90;;;;;;5119138;28;20692;-76
2022/11/23 08:08:01;;;;;;;7.72;5.72;;;9.90;99.90;;;;;;5119787;28;20532;-75
2022/11/23 08:10:28;;;;;;;7.20;6.00;;;9.90;99.90;;;;;;5092349;28;20620;-75
2022/11/23 08:13:00;;;;;;;7.80;5.60;;;9.90;99.90;;;;;;5119543;28;20175;-74
2022/11/23 08:15:29;;;;;;;9.25;7.00;;;9.90;99.90;;;;;;5129602;28;20671;-75
2022/11/23 08:17:58;;;;;;;11.82;8.13;;;10.00;99.90;;;;;;5119442;28;20309;-76
2022/11/23 08:20:26;;;;;;;9.38;7.47;;;10.20;99.90;;;;;;5097928;28;20611;-76
2022/11/23 08:22:54;;;;;;;14.73;8.32;;;10.40;99.90;;;;;;5100680;28;20592;-76
2022/11/23 08:25:21;;;;;;;10.90;7.15;;;10.50;99.90;;;;;;5119887;28;20597;-76
2022/11/23 08:27:46;;;;;;;8.95;6.53;;;10.60;99.90;;;;;;5099507;28;20266;-75
2022/11/23 08:30:13;;;;;;;12.23;7.43;;;10.60;99.90;;;;;;5098876;28;20305;-75
2022/11/23 08:32:39;;;;;;;15.50;8.55;;;10.60;99.90;;;;;;5101460;28;20417;-74
2022/11/23 08:35:05;;;;;;;12.17;7.20;;;10.60;99.90;;;;;;5098113;28;20188;-76
2022/11/23 08:37:31;;;;;;;13.20;8.30;;;10.60;99.90;;;;;;5117151;28;20688;-75
2022/11/23 08:39:56;;;;;;;12.57;8.60;;;10.60;99.90;;;;;;5118560;28;20205;-76
2022/11/23 08:42:22;;;;;;;16.03;9.30;;;10.60;99.90;;;;;;5116844;28;20232;-76
2022/11/23 08:44:48;;;;;;;11.97;7.93;;;10.60;99.90;;;;;;5119188;28;20208;-74
2022/11/23 08:47:13;;;;;;;9.23;7.33;;;10.60;99.90;;;;;;5119573;28;20236;-75
2022/11/23 08:49:39;;;;;;;11.40;8.50;;;10.60;99.90;;;;;;5105240;28;20212;-76
2022/11/23 08:52:05;;;;;;;12.70;8.80;;;10.60;99.90;;;;;;5101410;28;20270;-74
2022/11/23 08:54:31;;;;;;;11.17;8.10;;;10.60;99.90;;;;;;5098890;28;20428;-74
2022/11/23 08:56:57;;;;;;;12.35;9.20;;;10.70;99.90;;;;;;5100788;28;20207;-76
2022/11/23 08:59:23;;;;;;;13.50;9.30;;;10.80;99.90;;;;;;5078661;28;20203;-75
2022/11/23 09:01:48;;;;;;;13.30;10.13;;;11.10;99.90;;;;;;5078972;28;20173;-76
2022/11/23 09:04:14;;;;;;;14.60;9.77;;;11.50;99.90;;;;;;5098314;28;20429;-74
2022/11/23 09:06:40;;;;;;;11.47;7.80;;;12.10;99.90;;;;;;5074890;28;20660;-75
2022/11/23 09:09:05;;;;;;;14.37;8.27;;;12.80;99.90;;;;;;5074056;28;20173;-76
2022/11/23 09:11:31;;;;;;;8.63;6.13;;;13.50;99.90;;;;;;5074655;28;20234;-75
2022/11/23 09:13:57;;;;;;;10.27;7.50;;;14.00;99.90;;;;;;5101216;28;20184;-74
2022/11/23 09:16:23;;;;;;;9.17;6.90;;;14.40;99.90;;;;;;5101442;28;20195;-77
2022/11/23 09:18:49;;;;;;;11.57;6.87;;;14.70;99.90;;;;;;5110570;28;20810;-75
2022/11/23 09:21:15;;;;;;;9.83;6.40;;;14.80;99.90;;;;;;5102265;28;20267;-75
2022/11/23 09:23:40;;;;;;;12.13;8.30;;;14.70;99.90;;;;;;5101584;28;20580;-75
2022/11/23 09:26:06;;;;;;;13.97;7.97;;;14.50;99.90;;;;;;5103132;28;20689;-75
2022/11/23 09:28:32;;;;;;;11.20;6.90;;;14.30;99.90;;;;;;5086496;28;20215;-75
2022/11/23 09:31:03;;;;;;;12.03;8.20;;;14.00;99.90;;;;;;5084643;28;20475;-75
2022/11/23 09:33:28;;;;;;;11.57;8.17;;;13.60;99.90;;;;;;5098893;28;20953;-76
2022/11/23 09:36:02;;;;;;;11.40;7.60;;;13.20;99.90;;;;;;5079340;28;20428;-76
2022/11/23 09:38:28;;;;;;;13.23;8.00;;;12.90;99.90;;;;;;5086955;28;20251;-75
2022/11/23 09:41:26;;;;;;;11.00;8.23;;;12.70;99.90;;;;;;5092209;28;20493;-75
2022/11/23 09:44:23;;;;;;;11.10;8.53;;;12.50;99.90;;;;;;5102481;28;21025;-76
2022/11/23 09:47:20;;;;;;;13.43;8.20;;;12.30;99.90;;;;;;5115216;28;20489;-75
2022/11/23 09:50:06;;;;;;;12.70;9.13;;;12.10;99.90;;;;;;5078326;28;20445;-76
2022/11/23 09:52:34;;;;;;;11.83;9.37;;;11.90;99.90;;;;;;5095230;28;20497;-76
2022/11/23 09:55:04;;;;;;;13.27;9.33;;;11.90;99.90;;;;;;5100657;28;20463;-76
2022/11/23 09:57:33;;;;;;;13.87;9.10;;;11.80;99.90;;;;;;5070647;28;20480;-75
2022/11/23 10:00:10;;;;;;;12.97;9.20;;;11.80;99.90;;;;;;5091195;28;20470;-76
2022/11/23 10:02:39;;;;;;;11.93;9.20;;;11.70;99.90;;;;;;5106558;28;20502;-76
2022/11/23 10:05:09;;;;;;;13.40;8.27;;;11.60;99.90;;;;;;5102122;28;20440;-76
2022/11/23 10:07:55;;;;;;;14.17;9.30;;;11.60;99.90;;;;;;5103848;28;20517;-77
2022/11/23 10:10:39;;;;;;;11.63;8.13;;;11.50;99.90;;;;;;5092617;28;20417;-74
2022/11/23 10:13:34;;;;;;;12.55;9.75;;;11.50;99.90;;;;;;5089623;28;20427;-72
2022/11/23 10:16:26;;;;;;;13.20;9.70;;;11.40;99.90;;;;;;5108308;28;20664;-76
2022/11/23 10:19:20;;;;;;;15.17;9.23;;;11.40;99.90;;;;;;5086264;28;20539;-72
2022/11/23 10:22:10;;;;;;;15.30;9.73;;;11.30;99.90;;;;;;5090369;28;21022;-75
2022/11/23 10:24:44;;;;;;;16.00;10.47;;;11.20;99.90;;;;;;5073339;28;20436;-73
2022/11/23 10:27:15;;;;;;;17.33;10.48;;;11.20;99.90;;;;;;5088907;28;20443;-75
2022/11/23 10:29:41;;;;;;;16.20;10.32;;;11.20;99.90;;;;;;5079537;28;20200;-73
2022/11/23 10:32:15;;;;;;;15.20;9.43;;;11.10;99.90;;;;;;5072502;28;20185;-75
2022/11/23 10:35:02;;;;;;;23.10;14.13;;;11.10;99.90;;;;;;5086523;28;20201;-75
2022/11/23 10:37:27;;;;;;;16.30;11.13;;;11.10;99.90;;;;;;5103610;28;20522;-72
2022/11/23 10:39:53;;;;;;;14.00;10.27;;;11.10;99.90;;;;;;5103885;28;20782;-73
2022/11/23 10:42:51;;;;;;;19.10;11.50;;;11.10;99.90;;;;;;5081003;28;20196;-73
2022/11/23 10:45:22;;;;;;;18.27;11.25;;;11.10;99.90;;;;;;5095977;28;20731;-75
2022/11/23 10:47:54;;;;;;;19.88;12.50;;;11.10;99.90;;;;;;5104180;28;20180;-73
2022/11/23 10:50:36;;;;;;;24.73;14.40;;;11.10;99.90;;;;;;5103788;28;20628;-73
2022/11/23 10:53:04;;;;;;;15.75;10.38;;;11.10;99.90;;;;;;5087244;28;20195;-72
2022/11/23 10:55:33;;;;;;;19.50;12.05;;;11.10;99.90;;;;;;5113241;28;20229;-75
2022/11/23 10:57:59;;;;;;;18.30;11.80;;;11.10;99.90;;;;;;5105232;28;20727;-73
2022/11/23 11:00:28;;;;;;;17.67;11.63;;;11.10;99.90;;;;;;5082115;28;20204;-72
2022/11/23 11:02:55;;;;;;;16.52;11.65;;;11.20;99.90;;;;;;5090460;28;20417;-76
2022/11/23 11:05:27;;;;;;;18.10;11.53;;;11.20;99.90;;;;;;5103322;28;20196;-76
2022/11/23 11:07:54;;;;;;;16.03;10.90;;;11.20;99.90;;;;;;5093163;28;20444;-73
2022/11/23 11:11:01;;;;;;;19.43;12.37;;;11.20;99.90;;;;;;5089921;28;20447;-73
2022/11/23 11:13:32;;;;;;;19.70;13.73;;;11.20;99.90;;;;;;5060025;28;20477;-75
2022/11/23 11:16:06;;;;;;;18.47;11.30;;;11.20;99.90;;;;;;5095132;28;20574;-72
2022/11/23 11:21:26;;;;;;;17.80;10.90;;;11.20;99.90;;;;;;5090061;28;20198;-75
2022/11/23 11:24:04;;;;;;;16.80;12.87;;;11.20;99.90;;;;;;5096627;28;20171;-77
2022/11/23 11:26:32;;;;;;;16.07;11.87;;;11.10;99.90;;;;;;5098257;28;20522;-73
2022/11/23 11:29:04;;;;;;;18.70;12.47;;;11.20;99.90;;;;;;5078308;28;20456;-75
2022/11/23 11:31:38;;;;;;;19.08;12.15;;;11.10;99.90;;;;;;5071839;28;20433;-75
2022/11/23 11:34:13;;;;;;;20.27;14.00;;;11.20;99.90;;;;;;5099801;28;20252;-73
2022/11/23 11:36:47;;;;;;;21.90;14.13;;;11.20;99.90;;;;;;5091071;28;20951;-73
2022/11/23 11:39:26;;;;;;;29.40;17.90;;;11.20;99.90;;;;;;5108355;28;20407;-75
2022/11/23 11:41:53;;;;;;;23.17;14.70;;;11.20;99.90;;;;;;5090901;28;20434;-75
2022/11/23 11:44:23;;;;;;;21.13;13.73;;;11.20;99.90;;;;;;5085330;28;20441;-73
2022/11/23 11:46:56;;;;;;;22.90;14.83;;;11.20;99.90;;;;;;5093661;28;20424;-73
2022/11/23 11:49:38;;;;;;;21.47;14.90;;;11.20;99.90;;;;;;5074413;28;20429;-77
2022/11/23 11:52:10;;;;;;;19.33;13.10;;;11.30;99.90;;;;;;5078852;28;20424;-73
2022/11/23 11:54:57;;;;;;;19.77;14.27;;;11.30;99.90;;;;;;5101482;28;20826;-73
2022/11/23 11:57:36;;;;;;;21.27;14.60;;;11.40;99.90;;;;;;5102256;28;20684;-75
2022/11/23 12:00:09;;;;;;;19.08;13.50;;;11.40;99.90;;;;;;5082539;28;21273;-74
2022/11/23 12:02:42;;;;;;;19.07;13.70;;;11.50;99.90;;;;;;5076944;28;20181;-74
2022/11/23 12:05:36;;;;;;;20.33;13.50;;;11.50;99.90;;;;;;5083613;28;20804;-74
2022/11/23 12:08:09;;;;;;;19.90;13.03;;;11.50;99.90;;;;;;5081664;28;20809;-74
2022/11/23 12:10:44;;;;;;;23.17;16.93;;;11.60;99.90;;;;;;5081236;28;20432;-74
2022/11/23 12:13:30;;;;;;;21.90;14.13;;;11.60;99.90;;;;;;5097047;28;20929;-75
2022/11/23 12:16:19;;;;;;;23.93;14.80;;;11.60;99.90;;;;;;5086129;28;20444;-74
2022/11/23 12:19:16;;;;;;;27.80;15.93;;;11.70;99.90;;;;;;5078915;28;20474;-75
2022/11/23 12:22:00;;;;;;;22.27;15.40;;;11.70;99.90;;;;;;5101456;28;20453;-75
2022/11/23 12:24:44;;;;;;;27.73;18.27;;;11.80;99.90;;;;;;5110613;28;20440;-74
2022/11/23 12:27:30;;;;;;;21.63;15.50;;;11.80;99.90;;;;;;5097474;28;20463;-74
2022/11/23 12:30:20;;;;;;;22.20;16.40;;;11.80;99.90;;;;;;5093170;28;20899;-74
2022/11/23 12:33:07;;;;;;;25.67;18.30;;;11.90;99.90;;;;;;5088210;28;20459;-74
2022/11/23 12:36:07;;;;;;;29.13;18.97;;;11.90;99.90;;;;;;5080493;28;20481;-75
2022/11/23 12:38:49;;;;;;;21.90;15.30;;;11.90;99.90;;;;;;5103829;28;21044;-74
2022/11/23 12:41:38;;;;;;;26.30;16.77;;;11.90;99.90;;;;;;5103450;28;20431;-74
2022/11/23 12:44:24;;;;;;;21.50;13.93;;;11.90;99.90;;;;;;5103282;28;20965;-75
2022/11/23 12:46:53;;;;;;;52.23;29.77;;;11.90;99.90;;;;;;5096897;28;21622;-74
2022/11/23 12:49:35;;;;;;;33.73;21.83;;;11.90;99.90;;;;;;5098316;28;20440;-74
2022/11/23 12:52:28;;;;;;;30.20;20.10;;;11.90;99.90;;;;;;5090712;28;20547;-74
2022/11/23 12:55:22;;;;;;;23.87;16.50;;;11.90;99.90;;;;;;5096486;28;20467;-75
2022/11/23 12:58:08;;;;;;;46.97;26.00;;;11.90;99.90;;;;;;5081144;28;20471;-72
2022/11/23 13:00:38;;;;;;;34.33;23.43;;;11.90;99.90;;;;;;5080661;28;20800;-72
2022/11/23 13:03:12;;;;;;;32.30;22.47;;;11.80;99.90;;;;;;5092166;28;20423;-73
2022/11/23 13:06:01;;;;;;;29.03;19.97;;;11.80;99.90;;;;;;5087546;28;20462;-72